CheckWX is a tool to help pilots better visualize weather data.  It is not intended as a substitute for an official pre-flight weather briefing.

19:21:09 UTC

KOCW METAR
Washington-Warren Airport
Washington, North Carolina, USA
Current

21 mins ago

KOCW 261900Z AUTO 25005KT 10SM SCT060 35/19 A3000 RMK AO2 T03470193
Observed
May-26 @ 19:00 UTC
Wind
  • 250° at 5 KTS
Visibility
10 SM
Flight Rules
VFR
Cloud Levels
  • Scattered at 6,000' AGL
Temperature
35°C / 95°F
Dewpoint
19°C / 66°F
Humidity
39%
Altimeter
30" Hg
Pressure
1015.92 hPa
Previous

41 mins ago

KOCW 261840Z AUTO 27003KT 10SM CLR 35/19 A3001 RMK AO2 T03460190
Observed
May-26 @ 18:40 UTC
Wind
  • 270° at 3 KTS
Visibility
10 SM
Flight Rules
VFR
Cloud Levels
  • Clear skies
Temperature
35°C / 95°F
Dewpoint
19°C / 66°F
Humidity
39%
Altimeter
30.01" Hg
Pressure
1016.22 hPa
Previous

1 hour ago

KOCW 261820Z AUTO 24006KT 10SM CLR 35/19 A3001 RMK AO2 T03460188
Observed
May-26 @ 18:20 UTC
Wind
  • 240° at 6 KTS
Visibility
10 SM
Flight Rules
VFR
Cloud Levels
  • Clear skies
Temperature
35°C / 95°F
Dewpoint
19°C / 66°F
Humidity
39%
Altimeter
30.01" Hg
Pressure
1016.22 hPa